createdAt,value
2023-04-24T00:01:08.844Z,56.92
2023-04-24T00:03:35.179Z,56.49
2023-04-24T00:06:01.500Z,56.96
2023-04-24T00:08:27.913Z,56.91
2023-04-24T00:10:54.353Z,56.63
2023-04-24T00:13:21.137Z,56.64
2023-04-24T00:15:47.491Z,56.98
2023-04-24T00:18:13.940Z,57.30
2023-04-24T00:20:40.389Z,57.27
2023-04-24T00:23:06.909Z,57.33
2023-04-24T00:25:33.317Z,57.77
2023-04-24T00:27:59.742Z,57.66
2023-04-24T00:30:26.160Z,57.59
2023-04-24T00:32:52.660Z,57.86
2023-04-24T00:35:19.032Z,57.63
2023-04-24T00:37:45.488Z,57.80
2023-04-24T00:40:11.946Z,57.95
2023-04-24T00:42:38.310Z,57.84
2023-04-24T00:45:04.766Z,57.84
2023-04-24T00:47:31.180Z,57.75
2023-04-24T00:49:57.562Z,57.72
2023-04-24T00:52:23.981Z,57.80
2023-04-24T00:54:50.446Z,58.08
2023-04-24T00:57:16.818Z,58.20
2023-04-24T00:59:43.609Z,58.30
2023-04-24T01:02:09.716Z,58.03
2023-04-24T01:04:36.227Z,58.16
2023-04-24T01:07:02.557Z,58.03
2023-04-24T01:09:28.972Z,58.25
2023-04-24T01:11:55.391Z,58.25
2023-04-24T01:14:23.830Z,58.19
2023-04-24T01:16:48.173Z,58.41
2023-04-24T01:19:14.659Z,58.64
2023-04-24T01:21:41.091Z,58.64
2023-04-24T01:24:07.515Z,58.16
2023-04-24T01:26:33.872Z,58.05
2023-04-24T01:29:00.245Z,58.58
2023-04-24T01:31:26.765Z,58.49
2023-04-24T01:33:53.166Z,58.68
2023-04-24T01:36:19.630Z,59.10
2023-04-24T01:38:46.088Z,58.90
2023-04-24T01:41:12.471Z,59.08
2023-04-24T01:43:38.886Z,59.17
2023-04-24T01:46:05.347Z,59.10
2023-04-24T01:48:31.799Z,59.30
2023-04-24T01:50:58.223Z,59.39
2023-04-24T01:53:25.003Z,59.61
2023-04-24T01:55:51.340Z,59.80
2023-04-24T01:58:17.824Z,59.68
2023-04-24T02:00:44.290Z,59.61
2023-04-24T02:03:10.839Z,59.65
2023-04-24T02:05:37.083Z,59.84
2023-04-24T02:08:03.512Z,59.87
2023-04-24T02:10:29.997Z,59.83
2023-04-24T02:12:58.810Z,59.93
2023-04-24T02:15:25.362Z,60.16
2023-04-24T02:17:51.788Z,59.94
2023-04-24T02:20:18.180Z,59.83
2023-04-24T02:22:44.683Z,59.75
2023-04-24T02:25:11.088Z,59.66
2023-04-24T02:27:37.622Z,59.75
2023-04-24T02:30:04.794Z,59.72
2023-04-24T02:32:31.263Z,59.77
2023-04-24T02:34:57.671Z,59.96
2023-04-24T02:37:24.077Z,60.10
2023-04-24T02:39:50.550Z,60.06
2023-04-24T02:42:17.021Z,59.96
2023-04-24T02:44:43.431Z,59.93
2023-04-24T02:47:09.855Z,59.89
2023-04-24T02:49:36.565Z,59.86
2023-04-24T02:52:02.901Z,59.90
2023-04-24T02:54:29.412Z,59.45
2023-04-24T02:56:55.931Z,59.73
2023-04-24T02:59:22.333Z,59.86
2023-04-24T03:01:48.852Z,60.03
2023-04-24T03:04:15.435Z,60.20
2023-04-24T03:06:41.658Z,60.23
2023-04-24T03:09:08.204Z,60.51
2023-04-24T03:11:34.543Z,60.46
2023-04-24T03:14:01.116Z,60.63
2023-04-24T03:16:27.639Z,60.63
2023-04-24T03:18:53.941Z,60.53
2023-04-24T03:21:20.471Z,60.58
2023-04-24T03:23:46.932Z,60.59
2023-04-24T03:26:13.362Z,60.61
2023-04-24T03:28:39.862Z,60.56
2023-04-24T03:31:06.339Z,60.34
2023-04-24T03:33:32.679Z,60.30
2023-04-24T03:35:59.163Z,60.26
2023-04-24T03:38:25.614Z,60.27
2023-04-24T03:40:52.081Z,60.13
2023-04-24T03:43:18.519Z,59.93
2023-04-24T03:45:45.005Z,59.97
2023-04-24T03:48:11.453Z,59.92
2023-04-24T03:50:38.017Z,59.91
2023-04-24T03:53:04.460Z,60.03
2023-04-24T03:55:30.977Z,59.92
2023-04-24T03:57:57.536Z,59.80
2023-04-24T04:00:23.991Z,60.01
2023-04-24T04:02:50.593Z,60.06
2023-04-24T04:05:16.990Z,60.06
2023-04-24T04:07:43.338Z,60.23
2023-04-24T04:10:09.765Z,60.16
2023-04-24T04:12:36.241Z,60.23
2023-04-24T04:15:02.740Z,60.28
2023-04-24T04:17:29.217Z,60.36
2023-04-24T04:19:55.647Z,60.11
2023-04-24T04:22:23.250Z,60.21
2023-04-24T04:24:49.677Z,60.15
2023-04-24T04:27:16.133Z,60.29
2023-04-24T04:29:42.912Z,60.10
2023-04-24T04:32:09.279Z,60.07
2023-04-24T04:34:35.598Z,60.28
2023-04-24T04:37:02.037Z,60.43
2023-04-24T04:39:28.563Z,68.04
2023-04-24T04:41:55.070Z,81.27
2023-04-24T04:44:21.530Z,85.01
2023-04-24T04:46:48.106Z,85.43
2023-04-24T04:49:14.531Z,86.00
2023-04-24T04:51:42.863Z,85.23
2023-04-24T04:54:07.508Z,84.45
2023-04-24T04:56:34.005Z,83.32
2023-04-24T04:59:00.569Z,82.45
2023-04-24T05:01:27.139Z,75.48
2023-04-24T05:03:53.997Z,69.59
2023-04-24T05:06:21.295Z,66.56
2023-04-24T05:08:46.864Z,65.07
2023-04-24T05:11:13.282Z,64.57
2023-04-24T05:13:41.156Z,64.20
2023-04-24T05:16:06.434Z,63.95
2023-04-24T05:18:32.911Z,63.43
2023-04-24T05:20:59.326Z,63.42
2023-04-24T05:23:25.839Z,63.32
2023-04-24T05:25:52.246Z,63.19
2023-04-24T05:28:18.681Z,63.21
2023-04-24T05:30:45.193Z,62.62
2023-04-24T05:33:11.645Z,61.84
2023-04-24T05:35:38.141Z,61.68
2023-04-24T05:38:04.538Z,61.71
2023-04-24T05:40:31.018Z,61.53
2023-04-24T05:42:59.500Z,61.56
2023-04-24T05:45:23.825Z,61.26
2023-04-24T05:47:50.368Z,61.00
2023-04-24T05:50:16.824Z,60.82
2023-04-24T05:52:43.941Z,60.59
2023-04-24T05:55:10.488Z,60.18
2023-04-24T05:57:36.960Z,59.64
2023-04-24T06:00:03.372Z,59.74
2023-04-24T06:02:30.062Z,59.60
2023-04-24T06:04:56.381Z,59.71
2023-04-24T06:07:22.713Z,59.59
2023-04-24T06:09:49.093Z,59.33
2023-04-24T06:12:15.707Z,59.16
2023-04-24T06:14:42.146Z,58.92
2023-04-24T06:17:08.597Z,58.47
2023-04-24T06:19:34.956Z,58.15
2023-04-24T06:22:01.459Z,57.82
2023-04-24T06:24:30.523Z,57.57
2023-04-24T06:26:54.332Z,57.21
2023-04-24T06:29:20.863Z,56.88
2023-04-24T06:31:47.343Z,56.27
2023-04-24T06:34:13.702Z,56.09
2023-04-24T06:36:40.160Z,55.98
2023-04-24T06:39:06.609Z,55.95
2023-04-24T06:41:32.990Z,55.90
2023-04-24T06:43:59.604Z,55.91
2023-04-24T06:46:26.107Z,55.63
2023-04-24T06:48:52.512Z,55.29
2023-04-24T06:51:18.869Z,54.98
2023-04-24T06:53:46.047Z,54.67
2023-04-24T06:56:11.700Z,54.50
2023-04-24T06:58:38.133Z,54.14
2023-04-24T07:01:04.567Z,53.79
2023-04-24T07:03:31.009Z,53.64
2023-04-24T07:05:57.467Z,53.48
2023-04-24T07:08:23.873Z,53.46
2023-04-24T07:10:50.266Z,53.71
2023-04-24T07:13:16.715Z,53.58
2023-04-24T07:15:43.345Z,53.50
2023-04-24T07:18:10.259Z,52.42
2023-04-24T07:20:36.635Z,52.51
2023-04-24T07:23:03.110Z,52.62
2023-04-24T07:25:29.678Z,52.50
2023-04-24T07:27:56.010Z,52.15
2023-04-24T07:30:22.409Z,52.37
2023-04-24T07:32:48.856Z,52.01
2023-04-24T07:35:15.493Z,51.89
2023-04-24T07:37:41.886Z,51.37
2023-04-24T07:40:08.306Z,50.71
2023-04-24T07:42:34.788Z,49.88
2023-04-24T07:45:02.244Z,49.64
2023-04-24T07:47:28.777Z,49.67
2023-04-24T07:49:55.118Z,49.26
2023-04-24T07:52:21.513Z,49.16
2023-04-24T07:54:47.943Z,48.32
2023-04-24T07:57:14.346Z,48.11
2023-04-24T07:59:40.949Z,48.03
2023-04-24T08:02:07.336Z,47.73
2023-04-24T08:04:33.808Z,47.38
2023-04-24T08:07:00.122Z,46.51
2023-04-24T08:09:27.621Z,46.57
2023-04-24T08:11:52.992Z,46.44
2023-04-24T08:14:19.382Z,45.86
2023-04-24T08:16:45.759Z,45.40
2023-04-24T08:19:12.195Z,45.19
2023-04-24T08:21:38.643Z,44.96
2023-04-24T08:24:05.106Z,44.16
2023-04-24T08:26:31.509Z,44.03
2023-04-24T08:28:58.080Z,44.07
2023-04-24T08:31:24.472Z,43.87
2023-04-24T08:33:50.804Z,43.87
2023-04-24T08:36:17.226Z,43.83
2023-04-24T08:38:43.672Z,43.86
2023-04-24T08:41:10.012Z,43.10
2023-04-24T08:43:36.438Z,42.07
2023-04-24T08:46:05.550Z,42.17
2023-04-24T08:48:31.590Z,42.50
2023-04-24T08:50:55.687Z,41.58
2023-04-24T08:53:22.174Z,41.48
2023-04-24T08:55:48.545Z,41.49
2023-04-24T08:58:14.922Z,41.24
2023-04-24T09:00:41.504Z,41.75
2023-04-24T09:03:08.448Z,41.93
2023-04-24T09:05:34.701Z,40.96
2023-04-24T09:08:01.164Z,40.21
2023-04-24T09:10:27.631Z,39.69
2023-04-24T09:12:56.406Z,39.71
2023-04-24T09:15:22.772Z,39.63
2023-04-24T09:17:49.261Z,39.92
2023-04-24T09:20:15.703Z,39.69
2023-04-24T09:22:42.097Z,39.40
2023-04-24T09:25:08.518Z,39.25
2023-04-24T09:27:34.895Z,39.45
2023-04-24T09:30:01.447Z,39.17
2023-04-24T09:32:27.861Z,39.56
2023-04-24T09:34:54.590Z,39.44
2023-04-24T09:37:20.987Z,38.85
2023-04-24T09:39:47.398Z,38.69
2023-04-24T09:42:13.777Z,38.73
2023-04-24T09:44:40.172Z,38.45
2023-04-24T09:47:06.598Z,37.91
2023-04-24T09:49:33.037Z,37.91
2023-04-24T09:51:59.498Z,37.85
2023-04-24T09:54:25.887Z,37.04
2023-04-24T09:56:52.266Z,36.91
2023-04-24T09:59:19.738Z,36.99
2023-04-24T10:01:46.224Z,36.95
2023-04-24T10:04:12.606Z,36.89
2023-04-24T10:06:39.023Z,37.06
2023-04-24T10:09:05.512Z,36.61
2023-04-24T10:11:31.989Z,36.99
2023-04-24T10:13:58.835Z,36.66
2023-04-24T10:16:25.424Z,35.58
2023-04-24T10:18:51.604Z,35.93
2023-04-24T10:21:18.002Z,36.18
2023-04-24T10:23:44.368Z,35.81
2023-04-24T10:26:10.773Z,35.27
2023-04-24T10:28:37.231Z,35.25
2023-04-24T10:31:03.770Z,35.03
2023-04-24T10:33:30.072Z,35.86
2023-04-24T10:35:56.508Z,35.07
2023-04-24T10:38:22.964Z,36.01
2023-04-24T10:40:49.338Z,35.96
2023-04-24T10:43:15.738Z,35.30
2023-04-24T10:45:42.248Z,36.63
2023-04-24T10:48:08.697Z,36.10
2023-04-24T10:50:37.151Z,35.30
2023-04-24T10:53:03.607Z,35.52
2023-04-24T10:55:29.980Z,35.80
2023-04-24T10:57:56.369Z,34.76
2023-04-24T11:00:22.806Z,34.74
2023-04-24T11:02:51.729Z,35.18
2023-04-24T11:05:17.734Z,35.57
2023-04-24T11:07:44.227Z,35.87
2023-04-24T11:10:10.647Z,35.72
2023-04-24T11:12:37.072Z,36.40
2023-04-24T11:15:03.797Z,36.85
2023-04-24T11:17:29.919Z,37.16
2023-04-24T11:19:56.353Z,37.46
2023-04-24T11:22:22.668Z,37.58
2023-04-24T11:24:49.088Z,37.62
2023-04-24T11:27:15.575Z,37.76
2023-04-24T11:29:41.951Z,38.09
2023-04-24T11:32:08.414Z,38.75
2023-04-24T11:34:34.805Z,40.47
2023-04-24T11:37:01.225Z,41.48
2023-04-24T11:39:27.641Z,42.49
2023-04-24T11:41:54.065Z,41.91
2023-04-24T11:44:20.469Z,41.96
2023-04-24T11:46:46.879Z,42.98
2023-04-24T11:49:13.268Z,43.44
2023-04-24T11:51:52.296Z,43.64
2023-04-24T11:54:06.169Z,43.76
2023-04-24T11:56:32.566Z,43.03
2023-04-24T11:58:58.958Z,42.33
2023-04-24T12:01:25.378Z,42.21
2023-04-24T12:03:52.144Z,40.77
2023-04-24T12:06:18.376Z,39.75
2023-04-24T12:08:44.617Z,39.97
2023-04-24T12:11:11.079Z,39.87
2023-04-24T12:13:37.503Z,39.94
2023-04-24T12:16:03.861Z,39.55
2023-04-24T12:18:30.294Z,39.67
2023-04-24T12:21:01.339Z,39.59
2023-04-24T12:23:23.078Z,39.67
2023-04-24T12:25:49.512Z,39.99
2023-04-24T12:28:16.030Z,40.04
2023-04-24T12:30:42.440Z,40.30
2023-04-24T12:33:08.883Z,40.32
2023-04-24T12:35:36.427Z,40.38
2023-04-24T12:38:02.838Z,40.51
2023-04-24T12:40:29.245Z,40.48
2023-04-24T12:42:56.834Z,40.45
2023-04-24T12:45:22.135Z,40.19
2023-04-24T12:47:48.528Z,40.27
2023-04-24T12:50:14.918Z,40.28
2023-04-24T12:52:41.344Z,40.56
2023-04-24T12:55:07.706Z,40.47
2023-04-24T12:57:34.080Z,40.29
2023-04-24T13:00:00.461Z,40.27
2023-04-24T13:02:26.987Z,40.13
2023-04-24T13:04:53.315Z,40.37
2023-04-24T13:07:19.745Z,40.41
2023-04-24T13:09:46.153Z,40.68
2023-04-24T13:12:12.595Z,40.38
2023-04-24T13:14:38.970Z,40.67
2023-04-24T13:17:05.391Z,40.68
2023-04-24T13:19:31.877Z,40.69
2023-04-24T13:21:58.231Z,41.02
2023-04-24T13:24:26.815Z,40.93
2023-04-24T13:26:53.246Z,41.02
2023-04-24T13:29:19.746Z,41.16
2023-04-24T13:31:46.270Z,40.67
2023-04-24T13:34:12.589Z,40.74
2023-04-24T13:36:39.053Z,40.44
2023-04-24T13:39:05.471Z,40.71
2023-04-24T13:41:31.874Z,40.73
2023-04-24T13:43:58.314Z,40.50
2023-04-24T13:46:24.793Z,40.63
2023-04-24T13:48:51.118Z,40.79
2023-04-24T13:51:17.548Z,41.16
2023-04-24T13:53:44.203Z,41.76
2023-04-24T13:56:10.410Z,41.20
2023-04-24T13:58:36.783Z,41.16
2023-04-24T14:01:03.274Z,41.13
2023-04-24T14:03:29.833Z,41.46
2023-04-24T14:05:56.292Z,41.69
2023-04-24T14:08:22.659Z,41.87
2023-04-24T14:10:49.040Z,41.76
2023-04-24T14:13:15.661Z,42.37
2023-04-24T14:15:42.161Z,42.38
2023-04-24T14:18:08.560Z,42.62
2023-04-24T14:20:35.033Z,42.86
2023-04-24T14:23:01.492Z,43.40
2023-04-24T14:25:27.872Z,43.30
2023-04-24T14:27:54.361Z,43.50
2023-04-24T14:30:20.786Z,43.69
2023-04-24T14:32:47.242Z,43.48
2023-04-24T14:35:13.576Z,44.06
2023-04-24T14:37:39.962Z,44.32
2023-04-24T14:40:21.230Z,44.61
2023-04-24T14:42:32.784Z,45.45
2023-04-24T14:44:59.223Z,44.77
2023-04-24T14:47:25.628Z,44.32
2023-04-24T14:49:52.114Z,44.04
2023-04-24T14:52:18.477Z,43.48
2023-04-24T14:54:47.150Z,43.74
2023-04-24T14:57:15.896Z,43.72
2023-04-24T14:59:39.969Z,43.52
2023-04-24T15:02:15.958Z,43.34
2023-04-24T15:04:33.013Z,43.21
2023-04-24T15:06:59.268Z,43.61
2023-04-24T15:09:25.700Z,43.96
2023-04-24T15:11:52.127Z,44.03
2023-04-24T15:14:18.537Z,44.37
2023-04-24T15:16:45.000Z,44.96
2023-04-24T15:19:11.468Z,45.63
2023-04-24T15:21:37.883Z,46.62
2023-04-24T15:24:04.295Z,46.69
2023-04-24T15:26:30.883Z,46.63
2023-04-24T15:28:57.305Z,47.60
2023-04-24T15:31:23.758Z,47.67
2023-04-24T15:33:50.315Z,47.54
2023-04-24T15:36:16.634Z,47.68
2023-04-24T15:38:42.998Z,48.22
2023-04-24T15:41:09.486Z,48.04
2023-04-24T15:43:35.932Z,48.55
2023-04-24T15:46:02.381Z,49.59
2023-04-24T15:48:28.738Z,49.61
2023-04-24T15:50:55.155Z,49.19
2023-04-24T15:53:21.716Z,49.85
2023-04-24T15:55:48.098Z,50.92
2023-04-24T15:58:14.588Z,51.84
2023-04-24T16:00:40.975Z,52.29
2023-04-24T16:03:09.952Z,52.86
2023-04-24T16:05:33.895Z,53.38
2023-04-24T16:08:00.496Z,53.86
2023-04-24T16:10:27.195Z,54.32
2023-04-24T16:12:53.553Z,54.90
2023-04-24T16:15:19.982Z,55.15
2023-04-24T16:17:46.496Z,55.46
2023-04-24T16:20:12.831Z,55.91
2023-04-24T16:22:39.413Z,56.45
2023-04-24T16:25:06.276Z,57.01
2023-04-24T16:27:32.632Z,57.61
2023-04-24T16:29:59.129Z,58.01
2023-04-24T16:32:25.649Z,58.27
2023-04-24T16:34:52.152Z,58.52
2023-04-24T16:37:18.564Z,58.95
2023-04-24T16:39:44.945Z,59.23
2023-04-24T16:42:11.638Z,59.51
2023-04-24T16:44:38.072Z,59.96
2023-04-24T16:47:04.557Z,60.41
2023-04-24T16:49:31.167Z,60.62
2023-04-24T16:51:57.765Z,60.72
2023-04-24T16:54:24.205Z,61.00
2023-04-24T16:56:53.282Z,61.36
2023-04-24T16:59:17.286Z,61.42
2023-04-24T17:01:43.482Z,61.37
2023-04-24T17:04:10.927Z,61.65
2023-04-24T17:06:37.234Z,61.56
2023-04-24T17:09:03.868Z,61.57
2023-04-24T17:11:31.191Z,61.65
2023-04-24T17:13:56.815Z,61.55
2023-04-24T17:16:25.427Z,61.72
2023-04-24T17:18:51.918Z,61.64
2023-04-24T17:21:18.416Z,61.77
2023-04-24T17:23:45.392Z,61.85
2023-04-24T17:26:11.819Z,61.93
2023-04-24T17:28:38.332Z,62.20
2023-04-24T17:31:04.660Z,62.42
2023-04-24T17:33:31.088Z,62.69
2023-04-24T17:35:57.588Z,63.17
2023-04-24T17:38:23.960Z,63.49
2023-04-24T17:40:50.479Z,63.67
2023-04-24T17:43:16.937Z,63.75
2023-04-24T17:45:44.619Z,63.96
2023-04-24T17:48:11.110Z,64.16
2023-04-24T17:50:37.574Z,64.19
2023-04-24T17:53:03.927Z,64.11
2023-04-24T17:55:30.629Z,64.04
2023-04-24T17:57:57.160Z,63.83
2023-04-24T18:00:23.784Z,63.46
2023-04-24T18:02:50.474Z,63.30
2023-04-24T18:05:17.179Z,63.38
2023-04-24T18:07:43.596Z,63.81
2023-04-24T18:10:10.323Z,64.45
2023-04-24T18:12:36.687Z,65.05
2023-04-24T18:15:13.711Z,65.56
2023-04-24T18:17:29.536Z,66.15
2023-04-24T18:19:55.998Z,67.22
2023-04-24T18:22:22.645Z,68.07
2023-04-24T18:24:49.164Z,68.71
2023-04-24T18:27:15.590Z,69.05
2023-04-24T18:29:42.237Z,69.25
2023-04-24T18:32:08.649Z,68.88
2023-04-24T18:34:35.050Z,68.91
2023-04-24T18:37:01.503Z,69.46
2023-04-24T18:39:27.922Z,70.22
2023-04-24T18:41:54.297Z,71.05
2023-04-24T18:44:20.788Z,71.91
2023-04-24T18:46:47.289Z,72.83
2023-04-24T18:49:13.781Z,73.74
2023-04-24T18:51:52.577Z,74.53
2023-04-24T18:54:06.688Z,75.31
2023-04-24T18:56:33.300Z,76.07
2023-04-24T18:58:59.723Z,76.86
2023-04-24T19:01:26.251Z,77.67
2023-04-24T19:03:52.768Z,78.37
2023-04-24T19:06:20.131Z,79.08
2023-04-24T19:08:46.932Z,79.93
2023-04-24T19:11:13.043Z,80.49
2023-04-24T19:13:39.498Z,81.26
2023-04-24T19:16:06.082Z,82.01
2023-04-24T19:18:32.411Z,81.87
2023-04-24T19:20:58.809Z,82.16
2023-04-24T19:23:25.264Z,82.72
2023-04-24T19:25:51.765Z,83.65
2023-04-24T19:28:18.096Z,84.53
2023-04-24T19:30:44.615Z,85.25
2023-04-24T19:33:11.049Z,86.07
2023-04-24T19:35:37.502Z,86.67
2023-04-24T19:38:03.937Z,87.20
2023-04-24T19:40:30.526Z,87.67
2023-04-24T19:42:56.984Z,88.08
2023-04-24T19:45:23.449Z,87.65
2023-04-24T19:47:49.856Z,87.98
2023-04-24T19:50:16.716Z,88.23
2023-04-24T19:52:43.515Z,88.50
2023-04-24T19:55:09.919Z,88.83
2023-04-24T19:57:36.404Z,89.12
2023-04-24T20:00:02.817Z,89.44
2023-04-24T20:02:29.473Z,89.76
2023-04-24T20:04:55.930Z,90.02
2023-04-24T20:07:22.170Z,90.33
2023-04-24T20:09:48.641Z,90.76
2023-04-24T20:12:15.013Z,91.16
2023-04-24T20:14:41.404Z,91.58
2023-04-24T20:17:07.941Z,91.99
2023-04-24T20:19:34.388Z,92.42
2023-04-24T20:22:00.710Z,92.71
2023-04-24T20:24:27.114Z,92.89
2023-04-24T20:26:53.531Z,93.03
2023-04-24T20:29:20.125Z,93.22
2023-04-24T20:31:46.630Z,93.37
2023-04-24T20:34:12.958Z,93.54
2023-04-24T20:36:39.315Z,93.50
2023-04-24T20:39:05.975Z,93.37
2023-04-24T20:41:32.399Z,93.26
2023-04-24T20:43:58.884Z,93.25
2023-04-24T20:46:25.423Z,93.26
2023-04-24T20:48:51.806Z,93.44
2023-04-24T20:51:18.117Z,93.64
2023-04-24T20:53:44.511Z,93.91
2023-04-24T20:56:10.919Z,94.21
2023-04-24T20:58:37.321Z,94.64
2023-04-24T21:01:03.783Z,95.05
2023-04-24T21:03:30.413Z,95.48
2023-04-24T21:05:56.795Z,95.95
2023-04-24T21:08:23.213Z,96.34
2023-04-24T21:10:49.641Z,96.73
2023-04-24T21:13:16.076Z,97.15
2023-04-24T21:15:42.520Z,97.57
2023-04-24T21:18:09.039Z,97.94
2023-04-24T21:20:35.414Z,98.31
2023-04-24T21:23:01.785Z,98.57
2023-04-24T21:25:28.255Z,98.79
2023-04-24T21:27:54.599Z,99.08
2023-04-24T21:30:20.988Z,99.40
2023-04-24T21:32:47.428Z,99.68
2023-04-24T21:35:13.830Z,99.90
2023-04-24T21:37:40.279Z,100.00
2023-04-24T21:40:06.669Z,100.00
2023-04-24T21:42:33.081Z,100.00
2023-04-24T21:44:59.484Z,100.00
2023-04-24T21:47:26.167Z,100.00
2023-04-24T21:49:52.625Z,100.00
2023-04-24T21:52:19.097Z,100.00
2023-04-24T21:54:45.459Z,100.00
2023-04-24T21:57:11.825Z,100.00
2023-04-24T21:59:38.244Z,100.00
2023-04-24T22:02:04.664Z,100.00
2023-04-24T22:04:31.123Z,100.00
2023-04-24T22:06:57.446Z,100.00
2023-04-24T22:09:23.969Z,100.00
2023-04-24T22:11:50.379Z,100.00
2023-04-24T22:14:16.814Z,100.00
2023-04-24T22:16:43.331Z,100.00
2023-04-24T22:19:09.665Z,100.00
2023-04-24T22:21:36.098Z,100.00
2023-04-24T22:24:02.536Z,100.00
2023-04-24T22:26:29.244Z,100.00
2023-04-24T22:28:55.668Z,100.00
2023-04-24T22:31:22.031Z,100.00
2023-04-24T22:33:48.681Z,100.00
2023-04-24T22:36:15.282Z,100.00
2023-04-24T22:38:41.646Z,100.00
2023-04-24T22:41:08.108Z,100.00
2023-04-24T22:43:34.546Z,100.00
2023-04-24T22:46:00.889Z,100.00
2023-04-24T22:48:27.349Z,100.00
2023-04-24T22:50:53.820Z,100.00
2023-04-24T22:53:20.180Z,100.00
2023-04-24T22:55:46.578Z,100.00
2023-04-24T22:58:13.036Z,100.00
2023-04-24T23:00:39.501Z,100.00
2023-04-24T23:03:05.961Z,100.00
2023-04-24T23:05:32.294Z,100.00
2023-04-24T23:07:58.783Z,100.00
2023-04-24T23:10:25.173Z,100.00
2023-04-24T23:12:51.743Z,100.00
2023-04-24T23:15:18.212Z,100.00
2023-04-24T23:17:44.718Z,100.00
2023-04-24T23:20:12.104Z,96.54
2023-04-24T23:22:38.617Z,93.13
2023-04-24T23:25:05.067Z,90.95
2023-04-24T23:27:31.460Z,89.37
2023-04-24T23:29:57.965Z,88.99
2023-04-24T23:32:24.434Z,88.86
2023-04-24T23:34:50.890Z,87.88
2023-04-24T23:37:18.923Z,86.83
2023-04-24T23:39:43.723Z,86.59
2023-04-24T23:42:10.106Z,86.16
2023-04-24T23:44:36.575Z,85.58
2023-04-24T23:47:02.989Z,85.14
2023-04-24T23:49:29.428Z,85.15
2023-04-24T23:51:55.879Z,84.57
2023-04-24T23:54:22.335Z,83.98
2023-04-24T23:56:48.715Z,82.37
2023-04-24T23:59:15.175Z,81.63
